Time;durP1;ratioP1;P1;durP2;ratioP2;P2;SDS_P1;SDS_P2;PMS_P1;PMS_P2;Temp;Humidity;BMP_temperature;BMP_pressure;BME280_temperature;BME280_humidity;BME280_pressure;Samples;Min_cycle;Max_cycle;Signal;HPM_P1;HPM_P2
2022/09/20 00:01:48;;;;;;;0.57;0.40;;;;;;;;;;4999157;28;20279;-61
2022/09/20 00:04:15;;;;;;;1.00;0.50;;;;;;;;;;5000533;28;20249;-61
2022/09/20 00:06:42;;;;;;;0.77;0.77;;;;;;;;;;4999751;28;20267;-61
2022/09/20 00:09:09;;;;;;;0.73;0.53;;;;;;;;;;5001377;28;20736;-61
2022/09/20 00:11:37;;;;;;;1.13;0.80;;;;;;;;;;5000325;28;20206;-61
2022/09/20 00:14:07;;;;;;;1.23;0.60;;;;;;;;;;4999678;28;20236;-61
2022/09/20 00:16:37;;;;;;;0.80;0.80;;;;;;;;;;4999293;28;20210;-61
2022/09/20 00:19:05;;;;;;;0.73;0.73;;;;;;;;;;5006675;28;20210;-62
2022/09/20 00:21:36;;;;;;;0.40;0.40;;;;;;;;;;5008311;28;20292;-62
2022/09/20 00:24:04;;;;;;;0.47;0.47;;;;;;;;;;4997006;28;20205;-61
2022/09/20 00:26:31;;;;;;;0.87;0.70;;;;;;;;;;5006957;28;20201;-62
2022/09/20 00:28:59;;;;;;;0.70;0.60;;;;;;;;;;5007029;28;20205;-61
2022/09/20 00:31:26;;;;;;;0.60;0.60;;;;;;;;;;5009736;28;20225;-61
2022/09/20 00:36:40;;;;;;;1.90;0.50;;;;;;;;;;4997102;28;20200;-61
2022/09/20 00:39:07;;;;;;;1.00;0.60;;;;;;;;;;5008883;28;20209;-61
2022/09/20 00:41:34;;;;;;;0.60;0.60;;;;;;;;;;5009555;28;20287;-60
2022/09/20 00:44:02;;;;;;;1.30;0.50;;;;;;;;;;5009215;28;20213;-61
2022/09/20 00:46:34;;;;;;;1.17;0.50;;;;;;;;;;5009354;28;20292;-61
2022/09/20 00:49:04;;;;;;;0.60;0.60;;;;;;;;;;5002816;28;20204;-61
2022/09/20 00:51:32;;;;;;;3.17;0.93;;;;;;;;;;5008103;28;20557;-61
2022/09/20 00:54:00;;;;;;;0.50;0.50;;;;;;;;;;5005784;28;20294;-61
2022/09/20 00:56:30;;;;;;;1.17;0.57;;;;;;;;;;5008384;28;20213;-60
2022/09/20 00:58:59;;;;;;;1.67;0.67;;;;;;;;;;5009556;28;20209;-61
2022/09/20 01:01:26;;;;;;;2.13;0.70;;;;;;;;;;5009138;28;20225;-61
2022/09/20 01:03:54;;;;;;;4.83;0.40;;;;;;;;;;5008952;28;20232;-61
2022/09/20 01:06:22;;;;;;;0.97;0.50;;;;;;;;;;5006807;28;20244;-61
2022/09/20 01:08:51;;;;;;;0.43;0.43;;;;;;;;;;5008586;28;20197;-61
2022/09/20 01:11:18;;;;;;;1.43;0.60;;;;;;;;;;5009030;28;20737;-61
2022/09/20 01:13:45;;;;;;;0.60;0.60;;;;;;;;;;5007780;28;20727;-61
2022/09/20 01:16:13;;;;;;;0.50;0.50;;;;;;;;;;5006375;28;20255;-58
2022/09/20 01:18:40;;;;;;;0.77;0.60;;;;;;;;;;5007164;28;20260;-59
2022/09/20 01:21:08;;;;;;;0.87;0.53;;;;;;;;;;5003280;28;20327;-59
2022/09/20 01:23:44;;;;;;;0.63;0.63;;;;;;;;;;5007550;28;20208;-59
2022/09/20 01:26:34;;;;;;;1.50;0.70;;;;;;;;;;5007732;28;20279;-59
2022/09/20 01:29:07;;;;;;;0.50;0.50;;;;;;;;;;5007996;28;20201;-59
2022/09/20 01:31:36;;;;;;;0.87;0.60;;;;;;;;;;5006168;28;20201;-59
2022/09/20 01:34:05;;;;;;;0.73;0.60;;;;;;;;;;5007000;28;20224;-59
2022/09/20 01:36:34;;;;;;;1.17;0.60;;;;;;;;;;5007374;28;20765;-59
2022/09/20 01:39:07;;;;;;;0.60;0.60;;;;;;;;;;5007847;28;20758;-59
2022/09/20 01:41:35;;;;;;;1.33;1.07;;;;;;;;;;5004277;28;20595;-59
2022/09/20 01:44:07;;;;;;;2.30;0.43;;;;;;;;;;5006717;28;20213;-59
2022/09/20 01:46:35;;;;;;;0.63;0.63;;;;;;;;;;5006362;28;20259;-60
2022/09/20 01:49:07;;;;;;;2.13;0.67;;;;;;;;;;5006442;28;20216;-60
2022/09/20 01:51:52;;;;;;;2.73;0.37;;;;;;;;;;5006854;28;20279;-59
2022/09/20 01:54:32;;;;;;;0.80;0.80;;;;;;;;;;5007343;28;20201;-59
2022/09/20 01:57:18;;;;;;;1.90;1.10;;;;;;;;;;5006921;28;20213;-59
2022/09/20 01:59:58;;;;;;;0.67;0.67;;;;;;;;;;5005350;28;20676;-59
2022/09/20 02:02:40;;;;;;;1.33;0.87;;;;;;;;;;5006486;28;20221;-59
2022/09/20 02:05:28;;;;;;;1.03;0.70;;;;;;;;;;5006223;28;20731;-59
2022/09/20 02:08:18;;;;;;;0.70;0.70;;;;;;;;;;5002391;28;20202;-59
2022/09/20 02:10:56;;;;;;;3.40;0.80;;;;;;;;;;4986584;28;20201;-59
2022/09/20 02:13:28;;;;;;;1.30;0.60;;;;;;;;;;5006403;28;20825;-60
2022/09/20 02:16:06;;;;;;;0.70;0.70;;;;;;;;;;5006728;28;20209;-59
2022/09/20 02:18:41;;;;;;;0.87;0.87;;;;;;;;;;5005883;28;20212;-59
2022/09/20 02:21:11;;;;;;;1.00;0.60;;;;;;;;;;5003511;28;20761;-59
2022/09/20 02:23:43;;;;;;;2.97;0.73;;;;;;;;;;5006742;28;20227;-59
2022/09/20 02:26:17;;;;;;;0.63;0.63;;;;;;;;;;5002820;28;20562;-59
2022/09/20 02:28:51;;;;;;;0.93;0.93;;;;;;;;;;5007491;28;20262;-59
2022/09/20 02:31:23;;;;;;;0.63;0.63;;;;;;;;;;5008285;28;20236;-59
2022/09/20 02:33:58;;;;;;;2.33;0.90;;;;;;;;;;5010653;28;20797;-59
2022/09/20 02:36:33;;;;;;;0.67;0.67;;;;;;;;;;5008517;28;20212;-59
2022/09/20 02:39:03;;;;;;;1.47;0.70;;;;;;;;;;5009801;28;20266;-59
2022/09/20 02:41:42;;;;;;;0.63;0.63;;;;;;;;;;5006610;28;20221;-59
2022/09/20 02:44:11;;;;;;;2.53;1.00;;;;;;;;;;5009307;28;20201;-59
2022/09/20 02:46:43;;;;;;;2.70;0.73;;;;;;;;;;5010168;28;20273;-59
2022/09/20 02:49:14;;;;;;;0.60;0.60;;;;;;;;;;5010217;28;20209;-59
2022/09/20 02:51:42;;;;;;;2.30;0.90;;;;;;;;;;4997908;28;20333;-59
2022/09/20 02:54:19;;;;;;;3.10;1.03;;;;;;;;;;5011479;28;20209;-59
2022/09/20 02:56:51;;;;;;;1.37;0.83;;;;;;;;;;5011507;28;20209;-59
2022/09/20 02:59:24;;;;;;;1.27;1.00;;;;;;;;;;5004029;28;20299;-59
2022/09/20 03:01:57;;;;;;;2.10;1.00;;;;;;;;;;5010991;28;20229;-60
2022/09/20 03:04:30;;;;;;;0.70;0.70;;;;;;;;;;5010986;28;20240;-59
2022/09/20 03:07:02;;;;;;;1.23;0.70;;;;;;;;;;5010986;28;20205;-59
2022/09/20 03:09:34;;;;;;;5.23;1.03;;;;;;;;;;5010933;28;20237;-59
2022/09/20 03:12:05;;;;;;;1.90;1.13;;;;;;;;;;5010678;28;20733;-58
2022/09/20 03:14:35;;;;;;;2.10;1.07;;;;;;;;;;5011236;28;20636;-59
2022/09/20 03:17:06;;;;;;;1.43;0.73;;;;;;;;;;5010860;28;20209;-59
2022/09/20 03:19:39;;;;;;;2.40;1.20;;;;;;;;;;5008707;28;20737;-59
2022/09/20 03:22:12;;;;;;;0.70;0.70;;;;;;;;;;5008233;28;20244;-59
2022/09/20 03:24:42;;;;;;;0.87;0.80;;;;;;;;;;5008522;28;20300;-59
2022/09/20 03:27:14;;;;;;;0.90;0.90;;;;;;;;;;5009865;28;20259;-59
2022/09/20 03:29:47;;;;;;;1.73;0.70;;;;;;;;;;5008965;28;20213;-59
2022/09/20 03:32:23;;;;;;;0.90;0.90;;;;;;;;;;5011132;28;20267;-59
2022/09/20 03:35:05;;;;;;;1.43;0.97;;;;;;;;;;5007391;28;20505;-59
2022/09/20 03:37:45;;;;;;;1.27;1.17;;;;;;;;;;5008613;28;20205;-60
2022/09/20 03:40:23;;;;;;;1.03;0.93;;;;;;;;;;5008628;28;20204;-59
2022/09/20 03:42:52;;;;;;;0.87;0.87;;;;;;;;;;5006553;28;20263;-59
2022/09/20 03:45:41;;;;;;;1.90;1.20;;;;;;;;;;5007679;28;20225;-59
2022/09/20 03:48:18;;;;;;;1.40;1.10;;;;;;;;;;5008070;28;20655;-59
2022/09/20 03:50:53;;;;;;;1.10;1.10;;;;;;;;;;5007839;28;20212;-59
2022/09/20 03:53:41;;;;;;;1.00;1.00;;;;;;;;;;5007194;28;20209;-59
2022/09/20 03:56:28;;;;;;;3.87;1.00;;;;;;;;;;5000733;28;20664;-59
2022/09/20 03:59:01;;;;;;;1.17;1.10;;;;;;;;;;5006194;28;20255;-59
2022/09/20 04:01:39;;;;;;;1.07;1.07;;;;;;;;;;5006887;28;20232;-60
2022/09/20 04:04:12;;;;;;;1.00;1.00;;;;;;;;;;5007630;28;20353;-59
2022/09/20 04:06:58;;;;;;;1.50;1.40;;;;;;;;;;5008443;28;20235;-59
2022/09/20 04:09:41;;;;;;;1.47;1.37;;;;;;;;;;5007624;28;20630;-59
2022/09/20 04:12:11;;;;;;;2.90;1.60;;;;;;;;;;5007422;28;20193;-59
2022/09/20 04:14:40;;;;;;;3.00;1.60;;;;;;;;;;5007978;28;20205;-59
2022/09/20 04:17:16;;;;;;;5.13;1.47;;;;;;;;;;5008320;28;20205;-59
2022/09/20 04:19:46;;;;;;;3.27;1.60;;;;;;;;;;5007757;28;20702;-58
2022/09/20 04:22:13;;;;;;;2.03;1.93;;;;;;;;;;5009431;28;20295;-60
2022/09/20 04:24:42;;;;;;;1.77;1.67;;;;;;;;;;5007878;28;20244;-60
2022/09/20 04:27:12;;;;;;;7.57;2.07;;;;;;;;;;5007622;28;20208;-60
2022/09/20 04:29:43;;;;;;;2.97;2.00;;;;;;;;;;5007639;28;20201;-59
2022/09/20 04:32:14;;;;;;;1.80;1.70;;;;;;;;;;5006727;28;20197;-60
2022/09/20 04:37:32;;;;;;;1.70;1.60;;;;;;;;;;4967470;28;20587;-59
2022/09/20 04:40:04;;;;;;;1.50;1.40;;;;;;;;;;5007319;28;20647;-60
2022/09/20 04:43:04;;;;;;;1.57;1.47;;;;;;;;;;5006198;28;20711;-60
2022/09/20 04:45:39;;;;;;;1.40;1.30;;;;;;;;;;5005756;28;20197;-60
2022/09/20 04:48:23;;;;;;;1.43;1.40;;;;;;;;;;5006556;28;20867;-60
2022/09/20 04:51:15;;;;;;;1.33;1.30;;;;;;;;;;5005417;28;20254;-59
2022/09/20 04:53:58;;;;;;;2.20;1.37;;;;;;;;;;5007583;28;21032;-59
2022/09/20 04:56:31;;;;;;;1.60;1.50;;;;;;;;;;5007903;28;20200;-59
2022/09/20 04:59:06;;;;;;;1.43;1.33;;;;;;;;;;5008421;28;20746;-60
2022/09/20 05:01:54;;;;;;;9.83;1.43;;;;;;;;;;5008193;28;20232;-59
2022/09/20 05:04:47;;;;;;;1.80;1.17;;;;;;;;;;5006186;28;20462;-59
2022/09/20 05:07:25;;;;;;;7.33;1.97;;;;;;;;;;5008401;28;20201;-59
2022/09/20 05:10:03;;;;;;;1.30;1.30;;;;;;;;;;5007792;28;20630;-59
2022/09/20 05:12:46;;;;;;;4.93;1.70;;;;;;;;;;5007474;28;20193;-60
2022/09/20 05:15:24;;;;;;;1.87;1.77;;;;;;;;;;5004855;28;20287;-60
2022/09/20 05:17:59;;;;;;;1.83;1.70;;;;;;;;;;5007392;28;20734;-60
2022/09/20 05:20:53;;;;;;;1.73;1.60;;;;;;;;;;5007223;28;20205;-60
2022/09/20 05:23:37;;;;;;;6.07;1.83;;;;;;;;;;4957936;28;20232;-59
2022/09/20 05:26:11;;;;;;;1.80;1.60;;;;;;;;;;5006750;28;20212;-60
2022/09/20 05:28:45;;;;;;;2.47;1.83;;;;;;;;;;5007770;28;20268;-59
2022/09/20 05:31:15;;;;;;;3.33;1.80;;;;;;;;;;4998886;28;20747;-60
2022/09/20 05:33:48;;;;;;;4.97;1.73;;;;;;;;;;5006568;28;20210;-59
2022/09/20 05:36:19;;;;;;;2.00;1.53;;;;;;;;;;5008856;28;20225;-59
2022/09/20 05:38:49;;;;;;;2.17;1.93;;;;;;;;;;4995742;28;20245;-59
2022/09/20 05:41:30;;;;;;;1.80;1.70;;;;;;;;;;4992567;28;20711;-59
2022/09/20 05:44:03;;;;;;;2.67;2.10;;;;;;;;;;4993977;28;20675;-59
2022/09/20 05:46:34;;;;;;;3.37;2.20;;;;;;;;;;5008605;28;20660;-59
2022/09/20 05:49:08;;;;;;;1.53;1.43;;;;;;;;;;4988801;28;20676;-60
2022/09/20 05:51:42;;;;;;;6.63;1.80;;;;;;;;;;5001598;28;20890;-62
2022/09/20 05:54:23;;;;;;;1.60;1.50;;;;;;;;;;5005367;28;20215;-60
2022/09/20 05:56:55;;;;;;;2.80;2.27;;;;;;;;;;5007398;28;20232;-60
2022/09/20 05:59:26;;;;;;;1.77;1.67;;;;;;;;;;4989705;28;20693;-59
2022/09/20 06:02:11;;;;;;;2.90;1.50;;;;;;;;;;4992825;28;20225;-60
2022/09/20 06:04:41;;;;;;;2.43;1.60;;;;;;;;;;5007346;28;20249;-60
2022/09/20 06:07:13;;;;;;;1.60;1.50;;;;;;;;;;5011716;28;20216;-60
2022/09/20 06:09:46;;;;;;;2.77;1.67;;;;;;;;;;5011547;28;20212;-60
2022/09/20 06:12:21;;;;;;;3.87;1.90;;;;;;;;;;5009767;28;20268;-60
2022/09/20 06:14:52;;;;;;;1.60;1.60;;;;;;;;;;5001877;28;20737;-59
2022/09/20 06:17:26;;;;;;;1.40;1.40;;;;;;;;;;5011510;28;20239;-60
2022/09/20 06:19:59;;;;;;;3.87;1.57;;;;;;;;;;5011202;28;20319;-60
2022/09/20 06:22:28;;;;;;;1.50;1.40;;;;;;;;;;5011247;28;20240;-60
2022/09/20 06:25:00;;;;;;;1.37;1.37;;;;;;;;;;5011157;28;20279;-59
2022/09/20 06:27:31;;;;;;;1.67;1.53;;;;;;;;;;4994135;28;20219;-59
2022/09/20 06:30:00;;;;;;;2.37;1.73;;;;;;;;;;5011421;28;20213;-60
2022/09/20 06:32:27;;;;;;;4.87;1.83;;;;;;;;;;5011041;28;20209;-60
2022/09/20 06:34:54;;;;;;;1.67;1.57;;;;;;;;;;5010966;28;20283;-60
2022/09/20 06:43:18;;;;;;;1.87;1.77;;;;;;;;;;5002337;28;20260;-60
2022/09/20 06:45:46;;;;;;;2.60;2.40;;;;;;;;;;4993746;28;20209;-60
2022/09/20 06:48:14;;;;;;;3.13;2.23;;;;;;;;;;5001040;28;20208;-60
2022/09/20 06:50:44;;;;;;;4.17;2.37;;;;;;;;;;5005136;28;20205;-61
2022/09/20 06:53:15;;;;;;;3.13;2.00;;;;;;;;;;4992278;28;20198;-61
2022/09/20 06:55:43;;;;;;;2.20;2.10;;;;;;;;;;5002615;28;20313;-60
2022/09/20 06:58:10;;;;;;;2.27;2.17;;;;;;;;;;5002897;28;20694;-59
2022/09/20 07:00:39;;;;;;;1.90;1.80;;;;;;;;;;5006562;28;20205;-59
2022/09/20 07:03:07;;;;;;;2.30;1.90;;;;;;;;;;5010544;28;20237;-60
2022/09/20 07:05:35;;;;;;;2.83;1.80;;;;;;;;;;5008988;28;20298;-60
2022/09/20 07:08:02;;;;;;;2.27;1.90;;;;;;;;;;5011163;28;20248;-60
2022/09/20 07:10:29;;;;;;;2.00;1.90;;;;;;;;;;5010941;28;20205;-60
2022/09/20 07:12:59;;;;;;;4.40;1.60;;;;;;;;;;5010866;28;20667;-59
2022/09/20 07:15:27;;;;;;;2.37;1.90;;;;;;;;;;5010079;28;20209;-60
2022/09/20 07:17:55;;;;;;;2.60;2.40;;;;;;;;;;5011011;28;20209;-60
2022/09/20 07:20:22;;;;;;;3.53;2.33;;;;;;;;;;5010655;28;20315;-60
2022/09/20 07:22:49;;;;;;;2.30;2.00;;;;;;;;;;5011000;28;20695;-60
2022/09/20 07:25:17;;;;;;;5.90;2.43;;;;;;;;;;5001373;28;20698;-60
2022/09/20 07:27:45;;;;;;;4.40;1.93;;;;;;;;;;5011133;28;20304;-60
2022/09/20 07:30:13;;;;;;;2.97;2.50;;;;;;;;;;5009385;28;20217;-60
2022/09/20 07:32:40;;;;;;;3.03;2.00;;;;;;;;;;5011001;28;20259;-60
2022/09/20 07:35:09;;;;;;;3.47;1.87;;;;;;;;;;5009637;28;20299;-60
2022/09/20 07:37:36;;;;;;;2.33;2.13;;;;;;;;;;4995052;28;20214;-60
2022/09/20 07:40:04;;;;;;;2.17;1.93;;;;;;;;;;5008605;28;20287;-60
2022/09/20 07:42:31;;;;;;;2.77;1.80;;;;;;;;;;5010807;28;20229;-61
2022/09/20 07:45:00;;;;;;;3.53;2.00;;;;;;;;;;5003442;28;20217;-60
2022/09/20 07:47:30;;;;;;;4.27;2.27;;;;;;;;;;5001645;28;20207;-60
2022/09/20 07:49:57;;;;;;;2.23;2.03;;;;;;;;;;4990947;28;20687;-61
2022/09/20 07:52:25;;;;;;;3.80;1.63;;;;;;;;;;5010010;28;20671;-59
2022/09/20 07:54:52;;;;;;;1.47;1.43;;;;;;;;;;5009972;28;20213;-60
2022/09/20 07:57:19;;;;;;;4.07;1.67;;;;;;;;;;5010672;28;20260;-59
2022/09/20 07:59:46;;;;;;;3.43;1.80;;;;;;;;;;5008020;28;20275;-61
2022/09/20 08:02:14;;;;;;;2.70;1.83;;;;;;;;;;5000605;28;20214;-59
2022/09/20 08:04:41;;;;;;;3.60;2.10;;;;;;;;;;5001376;28;20738;-61
2022/09/20 08:07:08;;;;;;;2.43;2.23;;;;;;;;;;5008911;28;20205;-60
2022/09/20 08:09:37;;;;;;;1.90;1.73;;;;;;;;;;5009320;28;20576;-60
2022/09/20 08:12:05;;;;;;;2.22;1.60;;;;;;;;;;4991366;28;20221;-61
2022/09/20 08:14:32;;;;;;;2.00;1.90;;;;;;;;;;5001343;28;20248;-61
2022/09/20 08:17:00;;;;;;;1.97;1.87;;;;;;;;;;5010300;28;20627;-61
2022/09/20 08:19:29;;;;;;;3.63;2.15;;;;;;;;;;5006955;28;20618;-60
2022/09/20 08:21:56;;;;;;;4.63;1.90;;;;;;;;;;4999530;28;20208;-60
2022/09/20 08:24:25;;;;;;;2.23;1.90;;;;;;;;;;4992831;28;20235;-61
2022/09/20 08:26:53;;;;;;;2.08;1.77;;;;;;;;;;5009707;28;20267;-61
2022/09/20 08:29:20;;;;;;;7.27;2.00;;;;;;;;;;5009071;28;20255;-61
2022/09/20 08:31:47;;;;;;;3.70;2.40;;;;;;;;;;5006485;28;20255;-61
2022/09/20 08:34:17;;;;;;;2.55;1.88;;;;;;;;;;5009308;28;20205;-61
2022/09/20 08:36:45;;;;;;;2.17;1.80;;;;;;;;;;5009645;28;20209;-61
2022/09/20 08:39:12;;;;;;;1.70;1.60;;;;;;;;;;5004860;28;20693;-61
2022/09/20 08:41:43;;;;;;;2.22;1.60;;;;;;;;;;5006360;28;20653;-61
2022/09/20 08:44:16;;;;;;;2.15;1.67;;;;;;;;;;4997276;28;20224;-63
2022/09/20 08:46:45;;;;;;;4.30;1.73;;;;;;;;;;5004554;28;20257;-59
2022/09/20 08:49:15;;;;;;;3.15;1.73;;;;;;;;;;5000946;28;20209;-61
2022/09/20 08:51:43;;;;;;;2.05;1.65;;;;;;;;;;5000516;28;20201;-61
2022/09/20 08:54:15;;;;;;;1.45;1.35;;;;;;;;;;5009363;28;20197;-61
2022/09/20 08:56:43;;;;;;;1.50;1.20;;;;;;;;;;5009256;28;20200;-61
2022/09/20 08:59:13;;;;;;;1.45;1.35;;;;;;;;;;5009181;28;20208;-61
2022/09/20 09:01:42;;;;;;;2.80;1.30;;;;;;;;;;5005487;28;20209;-61
2022/09/20 09:04:12;;;;;;;1.20;1.10;;;;;;;;;;5008620;28;20287;-61
2022/09/20 09:06:40;;;;;;;1.75;1.10;;;;;;;;;;5009466;28;20201;-61
2022/09/20 09:09:07;;;;;;;2.65;1.45;;;;;;;;;;5009486;28;20671;-62
2022/09/20 09:11:35;;;;;;;2.20;1.35;;;;;;;;;;5009012;28;20209;-59
2022/09/20 09:14:46;;;;;;;1.35;1.35;;;;;;;;;;5009292;28;20204;-62
2022/09/20 09:16:53;;;;;;;1.42;1.33;;;;;;;;;;4995920;28;20212;-61
2022/09/20 09:19:27;;;;;;;2.67;1.50;;;;;;;;;;5006224;28;20209;-59
2022/09/20 09:21:57;;;;;;;3.60;1.17;;;;;;;;;;5008489;28;20200;-60
2022/09/20 09:24:25;;;;;;;1.05;0.90;;;;;;;;;;5009411;28;20241;-59
2022/09/20 09:27:05;;;;;;;0.90;0.90;;;;;;;;;;5006690;28;20296;-59
2022/09/20 09:29:32;;;;;;;2.00;1.40;;;;;;;;;;4995868;28;20327;-61
2022/09/20 09:32:15;;;;;;;2.53;1.35;;;;;;;;;;5008740;28;20201;-59
2022/09/20 09:34:42;;;;;;;3.25;1.10;;;;;;;;;;5008863;28;20209;-59
2022/09/20 09:37:21;;;;;;;1.45;1.00;;;;;;;;;;5007427;28;20673;-59
2022/09/20 09:40:05;;;;;;;2.38;1.10;;;;;;;;;;5009811;28;20204;-59
2022/09/20 09:42:32;;;;;;;1.05;0.90;;;;;;;;;;5011887;28;20216;-59
2022/09/20 09:45:11;;;;;;;3.95;1.00;;;;;;;;;;5011655;28;20273;-59
2022/09/20 09:47:39;;;;;;;0.88;0.80;;;;;;;;;;4997352;28;20292;-59
2022/09/20 09:50:07;;;;;;;1.02;0.93;;;;;;;;;;5008665;28;20211;-62
2022/09/20 09:52:35;;;;;;;1.10;1.00;;;;;;;;;;5006570;28;20208;-60
2022/09/20 09:55:03;;;;;;;1.55;1.05;;;;;;;;;;4999854;28;20220;-60
2022/09/20 09:57:44;;;;;;;0.77;0.77;;;;;;;;;;5011352;28;20216;-60
2022/09/20 10:00:12;;;;;;;2.38;0.70;;;;;;;;;;5011829;28;20924;-60
2022/09/20 10:02:55;;;;;;;1.20;0.80;;;;;;;;;;5000042;28;20715;-60
2022/09/20 10:05:25;;;;;;;1.77;0.88;;;;;;;;;;5006346;28;20707;-60
2022/09/20 10:07:58;;;;;;;0.88;0.75;;;;;;;;;;5012016;28;20198;-60
2022/09/20 10:10:28;;;;;;;2.30;0.90;;;;;;;;;;5011711;28;20202;-60
2022/09/20 10:13:02;;;;;;;0.60;0.60;;;;;;;;;;5012407;28;20263;-60
2022/09/20 10:15:31;;;;;;;1.98;0.98;;;;;;;;;;5011699;28;20228;-60
2022/09/20 10:18:07;;;;;;;1.02;0.98;;;;;;;;;;5011681;28;20236;-60
2022/09/20 10:20:51;;;;;;;0.93;0.93;;;;;;;;;;4998923;28;20263;-60
2022/09/20 10:23:24;;;;;;;1.70;0.85;;;;;;;;;;5003652;28;20272;-60
2022/09/20 10:25:55;;;;;;;0.90;0.80;;;;;;;;;;5009414;28;20278;-61
2022/09/20 10:28:33;;;;;;;1.20;0.85;;;;;;;;;;5006058;28;20224;-61
2022/09/20 10:31:06;;;;;;;0.90;0.90;;;;;;;;;;5010555;28;20283;-60
2022/09/20 10:33:38;;;;;;;1.98;1.05;;;;;;;;;;5009599;28;20267;-63
2022/09/20 10:36:11;;;;;;;0.88;0.88;;;;;;;;;;5008895;28;20213;-62
2022/09/20 10:38:40;;;;;;;2.83;1.00;;;;;;;;;;5007952;28;20239;-59
2022/09/20 10:44:15;;;;;;;2.05;1.60;;;;;;;;;;5003911;28;20240;-60
2022/09/20 10:46:48;;;;;;;1.20;1.05;;;;;;;;;;4999547;28;20267;-61
2022/09/20 10:49:22;;;;;;;1.85;1.40;;;;;;;;;;4999668;28;20201;-61
2022/09/20 10:51:54;;;;;;;2.88;1.00;;;;;;;;;;5005347;28;20208;-61
2022/09/20 10:54:31;;;;;;;6.43;3.17;;;;;;;;;;5011548;28;20663;-60
2022/09/20 10:57:05;;;;;;;1.88;1.13;;;;;;;;;;5009243;28;20212;-60
2022/09/20 10:59:38;;;;;;;1.13;1.00;;;;;;;;;;5011524;28;20267;-61
2022/09/20 11:02:21;;;;;;;2.45;1.80;;;;;;;;;;5010444;28;20227;-61
2022/09/20 11:04:57;;;;;;;2.25;0.82;;;;;;;;;;5011098;28;20243;-61
2022/09/20 11:07:29;;;;;;;3.10;1.40;;;;;;;;;;5011609;28;20648;-61
2022/09/20 11:09:58;;;;;;;0.82;0.82;;;;;;;;;;5011554;28;20205;-62
2022/09/20 11:12:27;;;;;;;0.80;0.80;;;;;;;;;;5009612;28;20246;-62
2022/09/20 11:14:56;;;;;;;1.55;0.88;;;;;;;;;;5011099;28;20193;-61
2022/09/20 11:17:25;;;;;;;0.77;0.77;;;;;;;;;;5007237;28;20210;-60
2022/09/20 11:20:00;;;;;;;0.65;0.65;;;;;;;;;;5010760;28;20205;-60
2022/09/20 11:22:32;;;;;;;0.65;0.60;;;;;;;;;;4997961;28;20209;-60
2022/09/20 11:25:02;;;;;;;0.70;0.70;;;;;;;;;;5006394;28;20579;-61
2022/09/20 11:27:33;;;;;;;0.80;0.80;;;;;;;;;;5010664;28;20209;-61
2022/09/20 11:30:03;;;;;;;0.98;0.80;;;;;;;;;;5011240;28;20216;-62
2022/09/20 11:32:33;;;;;;;1.85;1.05;;;;;;;;;;5009540;28;20262;-62
2022/09/20 11:35:02;;;;;;;8.55;3.58;;;;;;;;;;5008566;28;20205;-62
2022/09/20 11:37:33;;;;;;;40.58;11.00;;;;;;;;;;5006786;28;20212;-62
2022/09/20 11:40:01;;;;;;;46.47;12.27;;;;;;;;;;5007455;28;20305;-63
2022/09/20 11:42:30;;;;;;;3.40;1.95;;;;;;;;;;5006424;28;20252;-61
2022/09/20 11:44:57;;;;;;;3.00;1.95;;;;;;;;;;5010219;28;20225;-61
2022/09/20 11:47:26;;;;;;;7.60;2.20;;;;;;;;;;5009166;28;20756;-60
2022/09/20 11:50:03;;;;;;;2.17;1.13;;;;;;;;;;5010384;28;20265;-61
2022/09/20 11:52:41;;;;;;;3.58;1.42;;;;;;;;;;5010081;28;20201;-61
2022/09/20 11:55:27;;;;;;;1.33;1.20;;;;;;;;;;5006878;28;20267;-62
2022/09/20 11:58:01;;;;;;;2.00;1.13;;;;;;;;;;5003443;28;20667;-61
2022/09/20 12:00:29;;;;;;;1.92;1.33;;;;;;;;;;4996044;28;20263;-62
2022/09/20 12:02:57;;;;;;;2.08;0.80;;;;;;;;;;4998758;28;20719;-62
2022/09/20 12:05:31;;;;;;;2.00;0.93;;;;;;;;;;5007198;28;20335;-62
2022/09/20 12:08:00;;;;;;;0.77;0.77;;;;;;;;;;4994470;28;20209;-61
2022/09/20 12:10:29;;;;;;;1.55;1.08;;;;;;;;;;5008835;28;20240;-61
2022/09/20 12:12:58;;;;;;;1.02;0.90;;;;;;;;;;5010090;28;20205;-61
2022/09/20 12:15:26;;;;;;;2.38;0.90;;;;;;;;;;5006183;28;20224;-61
2022/09/20 12:18:15;;;;;;;0.88;0.88;;;;;;;;;;5009762;28;20219;-62
2022/09/20 12:21:02;;;;;;;2.85;1.23;;;;;;;;;;5004275;28;20272;-62
2022/09/20 12:24:00;;;;;;;1.23;0.90;;;;;;;;;;5008785;28;20674;-62
2022/09/20 12:26:45;;;;;;;2.45;0.88;;;;;;;;;;5083771;27;21026;-63
2022/09/20 12:29:31;;;;;;;1.55;1.50;;;;;;;;;;5084488;28;20214;-60
2022/09/20 12:32:00;;;;;;;1.30;1.17;;;;;;;;;;5085940;28;20206;-61
2022/09/20 12:34:34;;;;;;;1.30;1.20;;;;;;;;;;5085830;28;20688;-60
2022/09/20 12:37:18;;;;;;;3.03;0.90;;;;;;;;;;5085736;28;20741;-60
2022/09/20 12:39:52;;;;;;;1.83;0.82;;;;;;;;;;5086124;28;20293;-61
2022/09/20 12:42:27;;;;;;;3.00;0.98;;;;;;;;;;5084028;28;20214;-60
2022/09/20 12:44:59;;;;;;;1.95;0.82;;;;;;;;;;5085554;28;20790;-61
2022/09/20 12:47:28;;;;;;;0.82;0.75;;;;;;;;;;5085857;28;20660;-63
2022/09/20 12:52:55;;;;;;;1.75;0.88;;;;;;;;;;5083900;28;20213;-61
2022/09/20 12:55:44;;;;;;;0.75;0.70;;;;;;;;;;5083618;28;20287;-61
2022/09/20 12:58:32;;;;;;;2.38;1.20;;;;;;;;;;5073655;28;20657;-60
2022/09/20 13:01:18;;;;;;;1.27;0.80;;;;;;;;;;5080983;28;20214;-60
2022/09/20 13:03:47;;;;;;;1.05;0.77;;;;;;;;;;5070601;28;20249;-60
2022/09/20 13:06:24;;;;;;;1.63;0.88;;;;;;;;;;5064918;28;20231;-60
2022/09/20 13:08:54;;;;;;;1.05;0.90;;;;;;;;;;5064918;28;20217;-60
2022/09/20 13:11:23;;;;;;;1.38;1.05;;;;;;;;;;5065561;28;20211;-60
2022/09/20 13:13:51;;;;;;;1.10;0.70;;;;;;;;;;5064987;28;20207;-60
2022/09/20 13:16:21;;;;;;;0.70;0.70;;;;;;;;;;5065416;28;20260;-60
2022/09/20 13:18:51;;;;;;;1.17;0.68;;;;;;;;;;5064112;28;20199;-61
2022/09/20 13:21:19;;;;;;;0.70;0.65;;;;;;;;;;5064979;28;20224;-63
2022/09/20 13:23:49;;;;;;;1.77;0.75;;;;;;;;;;5064921;28;20209;-61
2022/09/20 13:26:16;;;;;;;0.75;0.75;;;;;;;;;;5058903;28;20612;-60
2022/09/20 13:28:47;;;;;;;0.82;0.82;;;;;;;;;;5054601;28;20276;-61
2022/09/20 13:31:32;;;;;;;1.60;0.93;;;;;;;;;;5056169;28;20207;-61
2022/09/20 13:34:19;;;;;;;3.28;0.80;;;;;;;;;;5063081;28;20211;-60
2022/09/20 13:36:47;;;;;;;0.88;0.88;;;;;;;;;;5056208;28;20662;-61
2022/09/20 13:39:31;;;;;;;2.03;0.60;;;;;;;;;;5051508;28;20207;-60
2022/09/20 13:42:02;;;;;;;0.98;0.98;;;;;;;;;;5050673;28;20215;-61
2022/09/20 13:44:33;;;;;;;0.70;0.70;;;;;;;;;;5050953;28;20673;-61
2022/09/20 13:47:00;;;;;;;0.93;0.60;;;;;;;;;;5050632;28;20262;-60
2022/09/20 13:49:32;;;;;;;0.60;0.60;;;;;;;;;;5050449;28;20748;-61
2022/09/20 13:51:59;;;;;;;0.63;0.50;;;;;;;;;;5050245;28;20216;-60
2022/09/20 13:54:27;;;;;;;0.80;0.80;;;;;;;;;;5050770;28;20748;-61
2022/09/20 13:56:55;;;;;;;0.73;0.73;;;;;;;;;;5046382;28;20207;-61
2022/09/20 13:59:23;;;;;;;1.55;0.80;;;;;;;;;;5045057;28;20261;-61
2022/09/20 14:01:51;;;;;;;2.47;0.88;;;;;;;;;;5050255;28;20227;-61
2022/09/20 14:04:21;;;;;;;1.02;0.77;;;;;;;;;;5049376;28;20278;-62
2022/09/20 14:06:50;;;;;;;0.77;0.68;;;;;;;;;;5049638;28;20745;-61
2022/09/20 14:09:20;;;;;;;1.15;1.05;;;;;;;;;;5050188;28;20218;-60
2022/09/20 14:11:47;;;;;;;0.80;0.80;;;;;;;;;;5050209;28;20258;-60
2022/09/20 14:14:14;;;;;;;1.40;0.73;;;;;;;;;;5044422;28;20217;-59
2022/09/20 14:16:45;;;;;;;1.75;0.50;;;;;;;;;;5041430;28;20575;-60
2022/09/20 14:19:14;;;;;;;1.50;0.80;;;;;;;;;;5048944;28;20207;-60
2022/09/20 14:21:42;;;;;;;0.57;0.57;;;;;;;;;;5047491;28;20751;-60
2022/09/20 14:24:24;;;;;;;0.80;0.80;;;;;;;;;;5049099;28;20208;-60
2022/09/20 14:27:00;;;;;;;0.70;0.70;;;;;;;;;;5047014;28;20539;-61
2022/09/20 14:29:28;;;;;;;1.38;0.70;;;;;;;;;;5044571;28;20219;-60
2022/09/20 14:31:56;;;;;;;0.90;0.80;;;;;;;;;;5049200;28;20729;-61
2022/09/20 14:34:23;;;;;;;0.47;0.47;;;;;;;;;;5049178;28;20306;-61
2022/09/20 14:36:51;;;;;;;0.40;0.40;;;;;;;;;;5049360;28;20261;-61
2022/09/20 14:39:19;;;;;;;0.50;0.45;;;;;;;;;;5049286;28;20289;-61
2022/09/20 14:41:47;;;;;;;0.30;0.30;;;;;;;;;;5048907;28;20266;-61
2022/09/20 14:44:20;;;;;;;0.40;0.40;;;;;;;;;;5050009;28;20211;-60
2022/09/20 14:46:47;;;;;;;1.70;0.60;;;;;;;;;;5048939;28;20223;-61
2022/09/20 14:49:32;;;;;;;0.45;0.40;;;;;;;;;;5048707;28;20262;-61
2022/09/20 14:52:18;;;;;;;1.00;0.30;;;;;;;;;;5049163;28;20218;-61
2022/09/20 14:54:58;;;;;;;0.28;0.20;;;;;;;;;;5049388;28;20215;-61
2022/09/20 14:57:25;;;;;;;1.10;0.35;;;;;;;;;;5049555;28;20212;-60
2022/09/20 14:59:55;;;;;;;2.30;0.30;;;;;;;;;;5045973;28;20250;-60
2022/09/20 15:02:23;;;;;;;0.28;0.28;;;;;;;;;;5048989;28;20227;-60
2022/09/20 15:04:53;;;;;;;1.13;0.40;;;;;;;;;;5048810;28;20211;-61
2022/09/20 15:07:20;;;;;;;0.30;0.30;;;;;;;;;;5049153;28;20363;-61
2022/09/20 15:09:48;;;;;;;1.15;0.40;;;;;;;;;;5047930;28;20207;-62
2022/09/20 15:12:16;;;;;;;1.55;0.30;;;;;;;;;;5048652;28;20215;-61
2022/09/20 15:14:43;;;;;;;0.38;0.38;;;;;;;;;;5048053;28;20249;-61
2022/09/20 15:17:14;;;;;;;0.50;0.40;;;;;;;;;;5049243;28;20273;-61
2022/09/20 15:19:41;;;;;;;0.40;0.40;;;;;;;;;;5048772;28;20213;-61
2022/09/20 15:22:08;;;;;;;2.00;0.82;;;;;;;;;;5048680;28;20744;-61
2022/09/20 15:24:35;;;;;;;1.10;0.55;;;;;;;;;;5048684;28;20227;-61
2022/09/20 15:27:04;;;;;;;0.43;0.40;;;;;;;;;;5047098;28;20239;-61
2022/09/20 15:29:31;;;;;;;0.40;0.40;;;;;;;;;;5048216;28;20277;-62
2022/09/20 15:31:58;;;;;;;3.92;0.57;;;;;;;;;;5048711;28;20227;-61